createdAt,value
2019-05-10T00:00:14.282Z,58.83
2019-05-10T00:03:22.109Z,59.04
2019-05-10T00:06:28.952Z,59.14
2019-05-10T00:09:16.768Z,59.16
2019-05-10T00:12:20.975Z,59.27
2019-05-10T00:15:11.910Z,59.50
2019-05-10T00:18:01.383Z,59.53
2019-05-10T00:20:53.603Z,59.57
2019-05-10T00:23:44.041Z,59.70
2019-05-10T00:26:35.782Z,59.76
2019-05-10T00:29:25.454Z,59.69
2019-05-10T00:32:17.369Z,59.67
2019-05-10T00:35:09.409Z,59.70
2019-05-10T00:37:58.792Z,60.29
2019-05-10T00:40:49.385Z,60.30
2019-05-10T00:43:41.669Z,60.46
2019-05-10T00:46:32.333Z,60.68
2019-05-10T00:49:22.230Z,60.72
2019-05-10T00:52:12.623Z,60.76
2019-05-10T00:55:16.696Z,60.70
2019-05-10T00:57:52.938Z,60.80
2019-05-10T01:00:41.563Z,60.87
2019-05-10T01:03:30.119Z,60.88
2019-05-10T01:06:18.638Z,60.84
2019-05-10T01:09:07.843Z,61.14
2019-05-10T01:11:58.116Z,61.19
2019-05-10T01:14:47.507Z,61.17
2019-05-10T01:17:36.653Z,61.29
2019-05-10T01:20:25.598Z,61.36
2019-05-10T01:23:15.076Z,61.57
2019-05-10T01:26:04.401Z,61.47
2019-05-10T01:28:53.862Z,61.48
2019-05-10T01:31:42.890Z,61.33
2019-05-10T01:34:32.016Z,61.35
2019-05-10T01:37:21.045Z,61.54
2019-05-10T01:40:10.541Z,61.40
2019-05-10T01:43:00.058Z,61.40
2019-05-10T01:45:48.942Z,61.60
2019-05-10T01:48:37.629Z,61.64
2019-05-10T01:51:27.907Z,61.70
2019-05-10T01:54:17.587Z,61.58
2019-05-10T01:57:06.302Z,61.59
2019-05-10T01:59:55.682Z,61.52
2019-05-10T02:02:45.154Z,61.57
2019-05-10T02:05:34.923Z,61.67
2019-05-10T02:08:24.332Z,61.62
2019-05-10T02:11:13.539Z,61.57
2019-05-10T02:14:02.900Z,61.54
2019-05-10T02:16:52.339Z,61.55
2019-05-10T02:19:41.542Z,61.54
2019-05-10T02:22:31.066Z,61.62
2019-05-10T02:25:19.972Z,61.71
2019-05-10T02:28:09.376Z,61.58
2019-05-10T02:30:58.638Z,61.70
2019-05-10T02:33:47.638Z,61.61
2019-05-10T02:36:38.860Z,61.67
2019-05-10T02:39:27.872Z,61.71
2019-05-10T02:42:17.397Z,61.84
2019-05-10T02:45:07.904Z,61.77
2019-05-10T02:47:57.095Z,61.70
2019-05-10T02:50:46.543Z,61.78
2019-05-10T02:53:35.396Z,61.51
2019-05-10T02:56:30.463Z,61.74
2019-05-10T02:59:15.476Z,61.90
2019-05-10T03:02:06.588Z,61.95
2019-05-10T03:04:56.384Z,62.07
2019-05-10T03:07:45.357Z,62.08
2019-05-10T03:10:34.904Z,62.05
2019-05-10T03:13:27.118Z,62.00
2019-05-10T03:16:14.813Z,62.17
2019-05-10T03:19:04.248Z,62.01
2019-05-10T03:22:06.028Z,62.14
2019-05-10T03:24:58.429Z,62.23
2019-05-10T03:27:48.026Z,62.38
2019-05-10T03:30:37.910Z,62.36
2019-05-10T03:33:29.305Z,62.40
2019-05-10T03:36:18.395Z,62.43
2019-05-10T03:39:07.545Z,62.41
2019-05-10T03:41:57.253Z,62.53
2019-05-10T03:44:46.541Z,62.57
2019-05-10T03:47:35.966Z,62.58
2019-05-10T03:50:25.078Z,62.53
2019-05-10T03:53:14.039Z,62.51
2019-05-10T03:56:03.435Z,62.38
2019-05-10T03:58:52.555Z,62.61
2019-05-10T04:01:41.612Z,62.56
2019-05-10T04:04:31.032Z,62.82
2019-05-10T04:07:20.318Z,62.76
2019-05-10T04:10:09.315Z,62.75
2019-05-10T04:12:58.231Z,62.87
2019-05-10T04:15:47.474Z,62.84
2019-05-10T04:18:36.880Z,62.80
2019-05-10T04:21:26.295Z,62.81
2019-05-10T04:24:15.217Z,62.75
2019-05-10T04:27:04.119Z,62.70
2019-05-10T04:29:53.245Z,62.87
2019-05-10T04:32:43.993Z,62.87
2019-05-10T04:35:32.971Z,63.07
2019-05-10T04:38:21.690Z,62.99
2019-05-10T04:41:10.765Z,62.91
2019-05-10T04:44:00.196Z,62.85
2019-05-10T04:46:49.668Z,62.80
2019-05-10T04:49:39.640Z,62.71
2019-05-10T04:52:29.209Z,62.67
2019-05-10T04:55:18.896Z,62.60
2019-05-10T04:58:07.414Z,62.59
2019-05-10T05:00:56.903Z,62.64
2019-05-10T05:03:46.204Z,62.66
2019-05-10T05:06:34.868Z,62.68
2019-05-10T05:09:24.169Z,62.73
2019-05-10T05:12:12.785Z,63.21
2019-05-10T05:15:01.794Z,63.13
2019-05-10T05:17:50.661Z,63.45
2019-05-10T05:20:40.172Z,63.41
2019-05-10T05:23:29.732Z,63.64
2019-05-10T05:26:19.257Z,64.15
2019-05-10T05:29:07.941Z,64.04
2019-05-10T05:32:01.271Z,63.79
2019-05-10T05:34:47.639Z,63.77
2019-05-10T05:37:36.286Z,63.62
2019-05-10T05:40:25.626Z,63.60
2019-05-10T05:43:14.403Z,63.49
2019-05-10T05:46:04.297Z,63.40
2019-05-10T05:48:53.956Z,63.45
2019-05-10T05:51:43.041Z,63.43
2019-05-10T05:54:32.491Z,64.25
2019-05-10T05:57:27.179Z,64.72
2019-05-10T06:00:14.445Z,64.37
2019-05-10T06:03:03.784Z,64.34
2019-05-10T06:05:52.498Z,64.82
2019-05-10T06:08:42.240Z,65.19
2019-05-10T06:11:35.812Z,65.29
2019-05-10T06:14:21.348Z,64.80
2019-05-10T06:17:10.553Z,64.55
2019-05-10T06:20:00.954Z,64.24
2019-05-10T06:23:05.657Z,64.11
2019-05-10T06:25:42.540Z,63.97
2019-05-10T06:28:56.902Z,63.85
2019-05-10T06:31:22.030Z,63.72
2019-05-10T06:34:10.556Z,63.71
2019-05-10T06:37:00.016Z,63.62
2019-05-10T06:39:49.556Z,63.54
2019-05-10T06:42:38.796Z,63.66
2019-05-10T06:45:28.427Z,63.68
2019-05-10T06:48:26.324Z,63.64
2019-05-10T06:51:09.707Z,63.75
2019-05-10T06:53:58.967Z,63.63
2019-05-10T06:56:47.959Z,63.56
2019-05-10T06:59:37.542Z,63.51
2019-05-10T07:02:32.228Z,63.44
2019-05-10T07:05:16.921Z,63.51
2019-05-10T07:08:14.200Z,63.55
2019-05-10T07:10:56.467Z,63.46
2019-05-10T07:13:47.101Z,63.47
2019-05-10T07:16:36.011Z,63.35
2019-05-10T07:19:28.568Z,63.39
2019-05-10T07:22:21.761Z,63.37
2019-05-10T07:25:07.530Z,63.41
2019-05-10T07:27:56.968Z,63.37
2019-05-10T07:30:45.898Z,63.32
2019-05-10T07:33:37.331Z,63.26
2019-05-10T07:36:29.721Z,63.12
2019-05-10T07:39:16.437Z,63.14
2019-05-10T07:42:06.489Z,63.03
2019-05-10T07:44:56.813Z,63.06
2019-05-10T07:47:46.390Z,63.06
2019-05-10T07:50:35.973Z,63.09
2019-05-10T07:53:25.262Z,63.10
2019-05-10T07:56:14.525Z,63.21
2019-05-10T07:59:03.867Z,62.96
2019-05-10T08:01:52.661Z,62.89
2019-05-10T08:04:41.587Z,63.09
2019-05-10T08:07:31.082Z,63.01
2019-05-10T08:10:21.475Z,63.07
2019-05-10T08:13:15.439Z,62.91
2019-05-10T08:16:05.540Z,62.71
2019-05-10T08:18:55.771Z,62.77
2019-05-10T08:21:42.861Z,62.74
2019-05-10T08:24:32.735Z,62.58
2019-05-10T08:27:23.006Z,62.58
2019-05-10T08:30:25.192Z,62.52
2019-05-10T08:33:09.477Z,62.44
2019-05-10T08:36:55.031Z,62.53
2019-05-10T08:39:48.957Z,62.45
2019-05-10T08:42:45.548Z,62.24
2019-05-10T08:45:26.354Z,62.18
2019-05-10T08:48:15.299Z,62.26
2019-05-10T08:51:07.522Z,62.31
2019-05-10T08:53:58.129Z,62.99
2019-05-10T08:56:46.700Z,62.51
2019-05-10T08:59:35.858Z,62.02
2019-05-10T09:02:29.318Z,61.78
2019-05-10T09:05:20.983Z,62.16
2019-05-10T09:08:13.659Z,62.04
2019-05-10T09:10:57.525Z,61.75
2019-05-10T09:13:47.201Z,62.07
2019-05-10T09:16:43.459Z,61.71
2019-05-10T09:19:36.134Z,61.30
2019-05-10T09:22:17.688Z,61.01
2019-05-10T09:25:06.604Z,60.62
2019-05-10T09:27:55.769Z,60.39
2019-05-10T09:30:56.436Z,60.28
2019-05-10T09:33:34.971Z,60.17
2019-05-10T09:36:30.988Z,59.95
2019-05-10T09:39:21.440Z,60.43
2019-05-10T09:42:09.901Z,60.16
2019-05-10T09:44:56.966Z,60.18
2019-05-10T09:47:46.171Z,59.94
2019-05-10T09:50:44.391Z,59.80
2019-05-10T09:53:27.526Z,59.73
2019-05-10T09:59:12.310Z,59.53
2019-05-10T10:02:05.077Z,59.52
2019-05-10T10:04:52.567Z,59.35
2019-05-10T10:07:41.523Z,59.52
2019-05-10T10:10:32.528Z,59.48
2019-05-10T10:13:39.074Z,59.47
2019-05-10T10:16:14.696Z,59.42
2019-05-10T10:19:02.856Z,59.38
2019-05-10T10:21:51.783Z,59.41
2019-05-10T10:24:41.135Z,59.39
2019-05-10T10:27:34.530Z,59.28
2019-05-10T10:30:21.876Z,59.26
2019-05-10T10:33:17.475Z,59.08
2019-05-10T10:36:04.732Z,59.10
2019-05-10T10:38:51.712Z,58.94
2019-05-10T10:41:40.350Z,58.91
2019-05-10T10:44:29.451Z,58.82
2019-05-10T10:47:22.930Z,58.71
2019-05-10T10:50:13.495Z,58.66
2019-05-10T10:53:00.181Z,58.59
2019-05-10T10:55:54.958Z,58.19
2019-05-10T10:58:39.742Z,58.31
2019-05-10T11:01:45.704Z,58.07
2019-05-10T11:04:20.435Z,58.04
2019-05-10T11:07:11.109Z,57.16
2019-05-10T11:10:14.342Z,56.61
2019-05-10T11:12:56.180Z,56.29
2019-05-10T11:15:42.736Z,56.53
2019-05-10T11:18:32.094Z,56.42
2019-05-10T11:21:23.441Z,56.00
2019-05-10T11:24:17.929Z,56.28
2019-05-10T11:27:07.341Z,55.72
2019-05-10T11:29:55.175Z,54.61
2019-05-10T11:32:45.374Z,54.35
2019-05-10T11:35:35.358Z,53.78
2019-05-10T11:38:24.716Z,53.65
2019-05-10T11:41:21.335Z,53.44
2019-05-10T11:44:09.056Z,53.24
2019-05-10T11:46:56.918Z,53.33
2019-05-10T11:49:46.929Z,53.11
2019-05-10T11:52:36.689Z,53.16
2019-05-10T11:55:25.790Z,53.12
2019-05-10T11:58:15.188Z,52.93
2019-05-10T12:01:14.791Z,52.85
2019-05-10T12:03:56.980Z,53.01
2019-05-10T12:06:49.961Z,53.22
2019-05-10T12:09:36.663Z,52.91
2019-05-10T12:12:45.247Z,52.41
2019-05-10T12:15:25.197Z,52.72
2019-05-10T12:18:14.898Z,51.88
2019-05-10T12:21:09.347Z,51.43
2019-05-10T12:23:56.008Z,51.55
2019-05-10T12:29:34.900Z,50.35
2019-05-10T12:32:26.942Z,50.01
2019-05-10T12:35:14.408Z,50.00
2019-05-10T12:38:03.037Z,49.83
2019-05-10T12:40:52.456Z,48.65
2019-05-10T12:43:43.606Z,48.82
2019-05-10T12:46:31.910Z,48.92
2019-05-10T12:49:21.436Z,49.07
2019-05-10T12:52:14.331Z,49.30
2019-05-10T12:55:02.259Z,49.21
2019-05-10T12:57:53.628Z,49.33
2019-05-10T13:00:52.687Z,49.28
2019-05-10T13:03:41.553Z,48.58
2019-05-10T13:06:33.695Z,48.32
2019-05-10T13:09:38.702Z,48.62
2019-05-10T13:12:15.120Z,48.42
2019-05-10T13:15:07.335Z,48.36
2019-05-10T13:17:57.609Z,47.95
2019-05-10T13:20:49.244Z,48.02
2019-05-10T13:23:41.767Z,47.96
2019-05-10T13:26:38.432Z,48.16
2019-05-10T13:29:29.723Z,47.64
2019-05-10T13:32:20.598Z,47.01
2019-05-10T13:35:15.120Z,47.19
2019-05-10T13:38:08.254Z,46.93
2019-05-10T13:40:58.808Z,46.72
2019-05-10T13:43:48.732Z,47.05
2019-05-10T13:46:38.597Z,46.99
2019-05-10T13:49:28.519Z,46.65
2019-05-10T13:52:19.013Z,46.13
2019-05-10T13:55:09.475Z,46.10
2019-05-10T13:57:59.640Z,46.30
2019-05-10T14:00:52.732Z,46.04
2019-05-10T14:03:48.117Z,46.59
2019-05-10T14:06:35.630Z,46.49
2019-05-10T14:09:25.026Z,46.83
2019-05-10T14:12:16.162Z,46.29
2019-05-10T14:15:09.823Z,45.65
2019-05-10T14:17:56.519Z,45.75
2019-05-10T14:20:45.677Z,45.71
2019-05-10T14:23:35.140Z,46.12
2019-05-10T14:26:24.840Z,46.27
2019-05-10T14:29:14.297Z,46.21
2019-05-10T14:32:03.354Z,45.85
2019-05-10T14:34:52.501Z,45.14
2019-05-10T14:37:41.562Z,45.09
2019-05-10T14:40:31.003Z,45.59
2019-05-10T14:43:20.417Z,45.29
2019-05-10T14:46:13.729Z,44.84
2019-05-10T14:49:08.816Z,44.89
2019-05-10T14:51:59.117Z,44.41
2019-05-10T14:54:44.125Z,44.38
2019-05-10T14:57:33.257Z,44.24
2019-05-10T15:00:23.375Z,44.06
2019-05-10T15:03:13.689Z,43.90
2019-05-10T15:06:03.617Z,44.07
2019-05-10T15:08:53.867Z,43.44
2019-05-10T15:11:43.687Z,43.51
2019-05-10T15:14:34.227Z,43.26
2019-05-10T15:17:23.058Z,43.24
2019-05-10T15:20:12.221Z,42.44
2019-05-10T15:23:01.855Z,42.36
2019-05-10T15:25:56.990Z,41.76
2019-05-10T15:28:46.184Z,42.00
2019-05-10T15:31:35.631Z,41.71
2019-05-10T15:34:25.632Z,41.60
2019-05-10T15:37:17.776Z,41.51
2019-05-10T15:40:07.958Z,41.79
2019-05-10T15:42:58.271Z,42.16
2019-05-10T15:45:52.574Z,41.62
2019-05-10T15:48:41.930Z,41.27
2019-05-10T15:51:36.344Z,41.70
2019-05-10T15:54:20.062Z,41.62
2019-05-10T15:57:08.922Z,41.20
2019-05-10T15:59:59.207Z,41.24
2019-05-10T16:02:53.112Z,41.54
2019-05-10T16:08:30.294Z,41.33
2019-05-10T16:11:20.809Z,40.85
2019-05-10T16:14:09.936Z,40.52
2019-05-10T16:16:59.401Z,40.23
2019-05-10T16:19:51.022Z,39.60
2019-05-10T16:22:40.001Z,39.78
2019-05-10T16:25:32.852Z,39.96
2019-05-10T16:28:20.850Z,39.85
2019-05-10T16:31:09.491Z,38.43
2019-05-10T16:33:58.543Z,38.75
2019-05-10T16:36:47.865Z,38.48
2019-05-10T16:39:36.717Z,38.04
2019-05-10T16:42:27.906Z,37.90
2019-05-10T16:45:16.885Z,37.97
2019-05-10T16:48:06.283Z,37.85
2019-05-10T16:50:56.333Z,37.38
2019-05-10T16:53:45.936Z,37.06
2019-05-10T16:56:35.662Z,37.94
2019-05-10T16:59:29.882Z,38.33
2019-05-10T17:02:16.101Z,38.04
2019-05-10T17:05:09.804Z,38.08
2019-05-10T17:07:58.917Z,37.17
2019-05-10T17:10:46.520Z,37.70
2019-05-10T17:13:36.434Z,37.76
2019-05-10T17:16:26.336Z,37.87
2019-05-10T17:19:15.786Z,38.15
2019-05-10T17:22:05.111Z,37.80
2019-05-10T17:24:57.054Z,37.92
2019-05-10T17:27:44.879Z,38.58
2019-05-10T17:30:33.676Z,38.73
2019-05-10T17:33:22.831Z,39.21
2019-05-10T17:36:14.599Z,39.45
2019-05-10T17:39:03.467Z,39.66
2019-05-10T17:41:52.563Z,40.00
2019-05-10T17:44:43.708Z,40.62
2019-05-10T17:47:33.485Z,40.95
2019-05-10T17:50:22.978Z,41.16
2019-05-10T17:53:12.101Z,41.74
2019-05-10T17:56:02.977Z,42.23
2019-05-10T17:58:52.892Z,41.82
2019-05-10T18:01:42.221Z,42.42
2019-05-10T18:04:31.211Z,42.88
2019-05-10T18:07:20.775Z,42.37
2019-05-10T18:10:10.171Z,42.85
2019-05-10T18:13:03.348Z,43.24
2019-05-10T18:15:51.234Z,43.69
2019-05-10T18:18:46.253Z,43.63
2019-05-10T18:21:31.668Z,43.80
2019-05-10T18:24:20.554Z,43.92
2019-05-10T18:27:09.758Z,44.61
2019-05-10T18:30:02.180Z,44.70
2019-05-10T18:32:51.858Z,45.06
2019-05-10T18:35:40.789Z,45.22
2019-05-10T18:38:30.815Z,45.34
2019-05-10T18:41:20.374Z,45.53
2019-05-10T18:44:14.288Z,45.30
2019-05-10T18:47:00.822Z,45.63
2019-05-10T18:49:50.322Z,45.90
2019-05-10T18:52:39.479Z,46.08
2019-05-10T18:55:28.293Z,46.24
2019-05-10T18:58:23.256Z,46.29
2019-05-10T19:01:08.938Z,46.61
2019-05-10T19:03:57.869Z,46.80
2019-05-10T19:06:49.892Z,47.02
2019-05-10T19:09:37.517Z,47.15
2019-05-10T19:12:27.459Z,47.34
2019-05-10T19:15:17.183Z,47.43
2019-05-10T19:18:06.512Z,47.69
2019-05-10T19:20:55.533Z,47.88
2019-05-10T19:23:44.406Z,48.07
2019-05-10T19:26:33.731Z,48.24
2019-05-10T19:29:22.257Z,48.37
2019-05-10T19:32:18.359Z,48.48
2019-05-10T19:35:01.926Z,48.67
2019-05-10T19:37:50.573Z,48.86
2019-05-10T19:40:39.905Z,49.05
2019-05-10T19:43:29.013Z,49.16
2019-05-10T19:46:18.006Z,49.24
2019-05-10T19:49:07.452Z,49.34
2019-05-10T19:51:57.955Z,49.50
2019-05-10T19:54:47.570Z,49.70
2019-05-10T19:57:37.191Z,49.81
2019-05-10T20:00:26.411Z,49.89
2019-05-10T20:03:15.737Z,50.12
2019-05-10T20:06:04.640Z,50.19
2019-05-10T20:08:53.963Z,50.32
2019-05-10T20:11:43.505Z,50.36
2019-05-10T20:14:32.290Z,50.49
2019-05-10T20:17:21.339Z,50.58
2019-05-10T20:20:11.763Z,50.77
2019-05-10T20:23:01.536Z,50.86
2019-05-10T20:25:50.896Z,50.83
2019-05-10T20:28:40.256Z,50.98
2019-05-10T20:31:30.664Z,51.11
2019-05-10T20:34:23.907Z,51.22
2019-05-10T20:37:10.857Z,51.27
2019-05-10T20:40:00.118Z,51.41
2019-05-10T20:42:49.567Z,51.50
2019-05-10T20:45:38.519Z,51.52
2019-05-10T20:48:27.526Z,51.56
2019-05-10T20:51:16.856Z,51.77
2019-05-10T20:54:05.943Z,51.81
2019-05-10T20:56:55.530Z,51.95
2019-05-10T20:59:45.466Z,52.06
2019-05-10T21:02:35.277Z,52.10
2019-05-10T21:05:24.844Z,52.20
2019-05-10T21:08:16.912Z,52.26
2019-05-10T21:11:04.834Z,52.24
2019-05-10T21:13:57.799Z,52.35
2019-05-10T21:16:45.533Z,52.45
2019-05-10T21:19:34.746Z,52.60
2019-05-10T21:22:24.159Z,52.54
2019-05-10T21:25:14.594Z,52.60
2019-05-10T21:28:05.307Z,52.72
2019-05-10T21:30:54.945Z,52.86
2019-05-10T21:33:44.900Z,52.89
2019-05-10T21:36:33.904Z,52.91
2019-05-10T21:39:23.512Z,52.95
2019-05-10T21:42:15.174Z,53.03
2019-05-10T21:45:05.906Z,53.10
2019-05-10T21:47:55.793Z,53.16
2019-05-10T21:50:47.707Z,53.20
2019-05-10T21:53:37.036Z,53.30
2019-05-10T21:56:27.346Z,53.27
2019-05-10T21:59:18.392Z,53.41
2019-05-10T22:02:07.927Z,53.44
2019-05-10T22:04:57.162Z,53.56
2019-05-10T22:07:46.917Z,53.58
2019-05-10T22:10:36.864Z,53.66
2019-05-10T22:13:25.862Z,53.70
2019-05-10T22:16:16.009Z,53.73
2019-05-10T22:19:07.770Z,53.79
2019-05-10T22:21:57.381Z,53.82
2019-05-10T22:24:47.098Z,53.91
2019-05-10T22:27:36.709Z,53.90
2019-05-10T22:30:26.802Z,53.94
2019-05-10T22:33:17.529Z,53.98
2019-05-10T22:36:07.049Z,54.24
2019-05-10T22:39:06.644Z,54.19
2019-05-10T22:41:46.647Z,54.23
2019-05-10T22:44:35.759Z,54.31
2019-05-10T22:47:25.625Z,54.44
2019-05-10T22:50:15.055Z,54.42
2019-05-10T22:53:04.413Z,54.51
2019-05-10T22:55:54.388Z,54.45
2019-05-10T22:58:43.118Z,54.63
2019-05-10T23:01:35.316Z,54.68
2019-05-10T23:04:26.657Z,54.67
2019-05-10T23:07:16.090Z,54.78
2019-05-10T23:10:04.988Z,54.86
2019-05-10T23:12:54.167Z,54.92
2019-05-10T23:15:43.635Z,55.00
2019-05-10T23:18:33.030Z,54.97
2019-05-10T23:21:22.112Z,55.07
2019-05-10T23:24:13.303Z,55.14
2019-05-10T23:27:02.866Z,55.26
2019-05-10T23:29:52.280Z,55.24
2019-05-10T23:32:42.405Z,55.22
2019-05-10T23:35:31.160Z,55.31
2019-05-10T23:38:20.539Z,55.44
2019-05-10T23:41:09.477Z,55.56
2019-05-10T23:43:58.920Z,55.52
2019-05-10T23:46:47.673Z,55.63
2019-05-10T23:49:37.313Z,55.67
2019-05-10T23:52:26.704Z,55.75
2019-05-10T23:55:16.420Z,55.69
2019-05-10T23:58:05.794Z,55.91
